Time;durP1;ratioP1;P1;durP2;ratioP2;P2;SDS_P1;SDS_P2;PMS_P1;PMS_P2;Temp;Humidity;BMP_temperature;BMP_pressure;BME280_temperature;BME280_humidity;BME280_pressure;Samples;Min_cycle;Max_cycle;Signal;HPM_P1;HPM_P2
2022/04/19 00:01:38;;;;;;;4.20;2.87;;;10.10;99.90;;;;;;4899916;29;20234;-58
2022/04/19 00:04:07;;;;;;;4.13;2.70;;;10.10;99.90;;;;;;4902429;29;20247;-58
2022/04/19 00:06:36;;;;;;;4.63;2.60;;;10.10;99.90;;;;;;4895901;29;20734;-58
2022/04/19 00:09:04;;;;;;;5.17;2.80;;;10.10;99.90;;;;;;4896092;29;20242;-59
2022/04/19 00:11:32;;;;;;;5.47;3.00;;;10.00;99.90;;;;;;4895739;29;20303;-58
2022/04/19 00:14:03;;;;;;;4.93;3.13;;;10.00;99.90;;;;;;4895677;29;20662;-58
2022/04/19 00:16:31;;;;;;;4.87;3.17;;;9.90;99.90;;;;;;4900836;29;20272;-59
2022/04/19 00:19:01;;;;;;;3.53;2.50;;;9.90;99.90;;;;;;4895645;29;20241;-59
2022/04/19 00:21:29;;;;;;;4.20;3.00;;;9.80;99.90;;;;;;4895436;29;20266;-58
2022/04/19 00:23:58;;;;;;;3.30;2.57;;;9.90;99.90;;;;;;4896274;29;20293;-58
2022/04/19 00:26:26;;;;;;;6.07;2.77;;;9.90;99.90;;;;;;4895658;29;20333;-58
2022/04/19 00:28:54;;;;;;;4.27;3.00;;;9.90;99.90;;;;;;4896011;29;20327;-58
2022/04/19 00:31:23;;;;;;;6.13;3.20;;;9.80;99.90;;;;;;4895809;29;20259;-59
2022/04/19 00:33:51;;;;;;;4.37;3.00;;;9.70;99.90;;;;;;4901924;29;20723;-58
2022/04/19 00:36:23;;;;;;;4.23;3.10;;;9.50;99.90;;;;;;4895723;29;20250;-59
2022/04/19 00:38:51;;;;;;;4.03;3.13;;;9.40;99.90;;;;;;4895820;29;20654;-58
2022/04/19 00:41:19;;;;;;;4.10;3.10;;;9.40;99.90;;;;;;4898305;29;20328;-58
2022/04/19 00:43:47;;;;;;;3.90;2.80;;;9.40;99.90;;;;;;4895432;29;26521;-58
2022/04/19 00:46:16;;;;;;;4.27;3.30;;;9.40;99.90;;;;;;4901406;29;20242;-59
2022/04/19 00:48:45;;;;;;;3.97;2.80;;;9.40;99.90;;;;;;4894119;29;20245;-58
2022/04/19 00:51:13;;;;;;;4.63;3.00;;;9.30;99.90;;;;;;4894144;29;20725;-58
2022/04/19 00:53:43;;;;;;;3.53;3.00;;;9.30;99.90;;;;;;4894115;29;20766;-58
2022/04/19 00:56:12;;;;;;;4.90;3.00;;;9.30;99.90;;;;;;4894169;29;20238;-59
2022/04/19 00:58:40;;;;;;;5.10;3.33;;;9.30;99.90;;;;;;4886641;29;20248;-59
2022/04/19 01:01:09;;;;;;;6.13;3.10;;;9.20;99.90;;;;;;4897743;29;20229;-58
2022/04/19 01:03:38;;;;;;;4.40;3.30;;;9.20;99.90;;;;;;4894013;29;20229;-58
2022/04/19 01:06:14;;;;;;;4.07;3.00;;;9.10;99.90;;;;;;4893996;29;20297;-58
2022/04/19 01:08:44;;;;;;;5.40;3.50;;;9.10;99.90;;;;;;4894045;29;20238;-58
2022/04/19 01:14:02;;;;;;;4.97;3.43;;;9.10;99.90;;;;;;4893820;29;20706;-58
2022/04/19 01:16:34;;;;;;;3.53;3.00;;;9.00;99.90;;;;;;4900390;29;20242;-58
2022/04/19 01:19:06;;;;;;;5.30;2.97;;;8.90;99.90;;;;;;4894029;29;20265;-58
2022/04/19 01:21:45;;;;;;;4.20;3.20;;;8.90;99.90;;;;;;4894180;29;20785;-59
2022/04/19 01:24:17;;;;;;;4.57;3.60;;;8.70;99.90;;;;;;4894121;29;20249;-58
2022/04/19 01:26:46;;;;;;;3.50;2.93;;;8.80;99.90;;;;;;4893660;29;20728;-59
2022/04/19 01:29:15;;;;;;;4.43;3.00;;;8.80;99.90;;;;;;4894022;29;20268;-59
2022/04/19 01:31:46;;;;;;;3.30;2.77;;;8.80;99.90;;;;;;4894442;29;20322;-59
2022/04/19 01:34:14;;;;;;;3.60;3.13;;;8.80;99.90;;;;;;4899781;29;20340;-58
2022/04/19 01:36:43;;;;;;;5.03;3.37;;;8.80;99.90;;;;;;4895631;29;20233;-59
2022/04/19 01:39:12;;;;;;;3.63;2.97;;;8.70;99.90;;;;;;4895300;29;20296;-58
2022/04/19 01:41:44;;;;;;;4.50;3.40;;;8.60;99.90;;;;;;4900918;29;20325;-58
2022/04/19 01:44:15;;;;;;;5.23;3.67;;;8.60;99.90;;;;;;4897307;29;20257;-57
2022/04/19 01:46:43;;;;;;;5.40;3.27;;;8.50;99.90;;;;;;4905320;29;20233;-58
2022/04/19 01:49:12;;;;;;;3.90;3.10;;;8.50;99.90;;;;;;4898679;29;20694;-59
2022/04/19 01:51:41;;;;;;;3.03;2.73;;;8.50;99.90;;;;;;4897106;29;20288;-59
2022/04/19 01:54:10;;;;;;;5.20;3.60;;;8.50;99.90;;;;;;4897245;29;20312;-59
2022/04/19 01:56:40;;;;;;;4.67;3.37;;;8.50;99.90;;;;;;4897611;29;20234;-58
2022/04/19 01:59:16;;;;;;;4.50;3.10;;;8.60;99.90;;;;;;4897309;29;20818;-58
2022/04/19 02:02:05;;;;;;;4.30;3.40;;;8.60;99.90;;;;;;4898393;29;20241;-59
2022/04/19 02:04:33;;;;;;;4.43;3.27;;;8.40;99.90;;;;;;4903037;29;20268;-59
2022/04/19 02:07:04;;;;;;;3.67;3.03;;;8.30;99.90;;;;;;4897068;29;20571;-59
2022/04/19 02:09:32;;;;;;;4.70;3.50;;;8.30;99.90;;;;;;4896752;29;20244;-58
2022/04/19 02:12:04;;;;;;;4.23;3.73;;;8.20;99.90;;;;;;4897495;29;20609;-58
2022/04/19 02:14:59;;;;;;;4.50;3.47;;;8.10;99.90;;;;;;4877557;29;20641;-58
2022/04/19 02:17:28;;;;;;;4.40;3.30;;;8.10;99.90;;;;;;4897482;29;20625;-59
2022/04/19 02:20:00;;;;;;;4.93;3.40;;;8.10;99.90;;;;;;4897162;29;20241;-58
2022/04/19 02:22:29;;;;;;;5.30;3.40;;;8.00;99.90;;;;;;4897999;29;20330;-58
2022/04/19 02:24:59;;;;;;;5.10;3.40;;;8.00;99.90;;;;;;4898333;29;20241;-58
2022/04/19 02:27:31;;;;;;;5.23;3.57;;;7.90;99.90;;;;;;4896509;29;20245;-59
2022/04/19 02:30:03;;;;;;;4.30;3.33;;;7.90;99.90;;;;;;4896685;29;20237;-58
2022/04/19 02:32:32;;;;;;;4.73;3.13;;;7.80;99.90;;;;;;4897938;29;20756;-58
2022/04/19 02:35:01;;;;;;;4.83;3.40;;;7.80;99.90;;;;;;4901229;29;20241;-59
2022/04/19 02:37:32;;;;;;;3.47;3.17;;;7.80;99.90;;;;;;4896533;29;20241;-58
2022/04/19 02:40:01;;;;;;;3.73;2.90;;;7.80;99.90;;;;;;4896474;29;20575;-59
2022/04/19 02:42:31;;;;;;;4.50;3.20;;;7.70;99.90;;;;;;4901134;29;20251;-58
2022/04/19 02:45:03;;;;;;;6.60;3.60;;;7.70;99.90;;;;;;4901704;29;20244;-59
2022/04/19 02:47:32;;;;;;;3.83;3.33;;;7.70;99.90;;;;;;4896048;29;20252;-58
2022/04/19 02:50:01;;;;;;;4.70;3.80;;;7.60;99.90;;;;;;4896399;29;20315;-58
2022/04/19 02:52:29;;;;;;;4.03;3.60;;;7.60;99.90;;;;;;4894827;29;20354;-58
2022/04/19 02:54:57;;;;;;;5.23;3.60;;;7.50;99.90;;;;;;4896584;29;20249;-59
2022/04/19 02:57:27;;;;;;;5.37;3.60;;;7.50;99.90;;;;;;4896570;29;20605;-57
2022/04/19 02:59:57;;;;;;;5.33;3.90;;;7.40;99.90;;;;;;4897754;29;20260;-58
2022/04/19 03:02:25;;;;;;;7.13;3.90;;;7.40;99.90;;;;;;4895924;29;20605;-58
2022/04/19 03:04:53;;;;;;;5.17;3.57;;;7.30;99.90;;;;;;4901892;29;20237;-59
2022/04/19 03:07:21;;;;;;;5.60;3.70;;;7.40;99.90;;;;;;4896307;29;20237;-59
2022/04/19 03:09:49;;;;;;;4.47;3.70;;;7.30;99.90;;;;;;4895960;29;20242;-58
2022/04/19 03:12:18;;;;;;;4.50;3.30;;;7.20;99.90;;;;;;4895608;29;20757;-59
2022/04/19 03:15:00;;;;;;;4.30;3.33;;;7.20;99.90;;;;;;4895674;29;20283;-58
2022/04/19 03:17:28;;;;;;;4.43;3.17;;;7.20;99.90;;;;;;4896860;29;20236;-58
2022/04/19 03:19:56;;;;;;;4.70;3.37;;;7.20;99.90;;;;;;4896024;29;20321;-59
2022/04/19 03:22:24;;;;;;;6.13;3.90;;;7.20;99.90;;;;;;4899592;29;20241;-57
2022/04/19 03:27:49;;;;;;;4.77;3.60;;;7.20;99.90;;;;;;4889204;29;20308;-59
2022/04/19 03:30:22;;;;;;;3.83;3.17;;;7.20;99.90;;;;;;4895540;29;20261;-60
2022/04/19 03:32:53;;;;;;;5.27;3.50;;;7.30;99.90;;;;;;4896096;29;20240;-58
2022/04/19 03:35:21;;;;;;;5.43;3.60;;;7.30;99.90;;;;;;4895137;29;20689;-59
2022/04/19 03:37:49;;;;;;;4.70;3.80;;;7.30;99.90;;;;;;4892157;29;20324;-58
2022/04/19 03:40:17;;;;;;;5.20;3.77;;;7.40;99.90;;;;;;4895353;29;20237;-58
2022/04/19 03:42:45;;;;;;;4.83;4.00;;;7.40;99.90;;;;;;4899240;29;20245;-59
2022/04/19 03:45:13;;;;;;;4.23;3.80;;;7.30;99.90;;;;;;4895310;29;20240;-58
2022/04/19 03:47:44;;;;;;;4.60;3.80;;;7.20;99.90;;;;;;4895027;29;20285;-58
2022/04/19 03:50:14;;;;;;;4.97;3.70;;;7.30;99.90;;;;;;4895787;29;20332;-58
2022/04/19 03:52:44;;;;;;;7.00;4.10;;;7.30;99.90;;;;;;4894900;29;20241;-58
2022/04/19 03:55:12;;;;;;;5.67;3.80;;;7.20;99.90;;;;;;4894744;29;20618;-58
2022/04/19 03:57:40;;;;;;;4.77;3.90;;;7.30;99.90;;;;;;4886203;29;20229;-58
2022/04/19 04:00:11;;;;;;;4.97;4.10;;;7.20;99.90;;;;;;4886686;29;20222;-58
2022/04/19 04:02:47;;;;;;;4.63;3.50;;;7.20;99.90;;;;;;4889497;29;20329;-58
2022/04/19 04:05:24;;;;;;;4.67;3.60;;;7.30;99.90;;;;;;4889304;29;20332;-58
2022/04/19 04:07:57;;;;;;;6.63;3.97;;;7.40;99.90;;;;;;4889133;29;20272;-58
2022/04/19 04:10:27;;;;;;;4.80;4.00;;;7.30;99.90;;;;;;4886046;29;20301;-58
2022/04/19 04:12:57;;;;;;;6.30;4.00;;;7.40;99.90;;;;;;4888127;29;20361;-58
2022/04/19 04:15:25;;;;;;;7.50;4.10;;;7.40;99.90;;;;;;4888178;29;20249;-58
2022/04/19 04:17:55;;;;;;;5.60;4.20;;;7.40;99.90;;;;;;4888427;29;20245;-57
2022/04/19 04:20:23;;;;;;;4.17;3.33;;;7.40;99.90;;;;;;4892002;29;20331;-59
2022/04/19 04:22:51;;;;;;;5.00;3.63;;;7.40;99.90;;;;;;4888284;29;20324;-59
2022/04/19 04:25:20;;;;;;;5.87;4.10;;;7.40;99.90;;;;;;4877915;29;20765;-58
2022/04/19 04:27:48;;;;;;;6.57;4.53;;;7.30;99.90;;;;;;4894336;29;20623;-58
2022/04/19 04:30:17;;;;;;;6.67;3.90;;;7.20;99.90;;;;;;4894545;29;20618;-59
2022/04/19 04:32:55;;;;;;;5.17;4.00;;;7.20;99.90;;;;;;4898309;29;20260;-59
2022/04/19 04:35:23;;;;;;;5.00;3.93;;;7.10;99.90;;;;;;4896709;29;20659;-58
2022/04/19 04:37:51;;;;;;;6.70;4.57;;;7.10;99.90;;;;;;4895903;29;20237;-59
2022/04/19 04:40:22;;;;;;;4.47;3.70;;;7.10;99.90;;;;;;4894396;29;20237;-58
2022/04/19 04:42:57;;;;;;;5.77;4.40;;;7.10;99.90;;;;;;4893974;29;20244;-58
2022/04/19 04:45:26;;;;;;;5.53;3.80;;;7.00;99.90;;;;;;4900308;29;20236;-58
2022/04/19 04:50:43;;;;;;;7.57;4.27;;;7.00;99.90;;;;;;4884323;29;20240;-58
2022/04/19 04:53:11;;;;;;;6.57;3.90;;;7.00;99.90;;;;;;4890656;29;20237;-59
2022/04/19 04:55:45;;;;;;;7.90;4.37;;;7.10;99.90;;;;;;4887973;29;20618;-59
2022/04/19 04:58:22;;;;;;;5.50;4.13;;;7.10;99.90;;;;;;4894099;29;20237;-58
2022/04/19 05:00:50;;;;;;;6.43;4.40;;;7.00;99.90;;;;;;4893262;29;20313;-59
2022/04/19 05:03:25;;;;;;;5.77;4.43;;;7.10;99.90;;;;;;4899818;29;20236;-58
2022/04/19 05:05:57;;;;;;;7.97;4.40;;;7.00;99.90;;;;;;4895318;29;20263;-59
2022/04/19 05:08:25;;;;;;;6.87;4.80;;;7.10;99.90;;;;;;4893993;29;20241;-59
2022/04/19 05:10:55;;;;;;;5.50;4.20;;;7.00;99.90;;;;;;4894028;29;20265;-59
2022/04/19 05:13:26;;;;;;;7.50;4.90;;;7.00;99.90;;;;;;4894106;29;20315;-58
2022/04/19 05:15:55;;;;;;;11.90;5.13;;;7.10;99.90;;;;;;4903372;29;20248;-59
2022/04/19 05:18:24;;;;;;;7.73;4.97;;;7.10;99.90;;;;;;4897775;29;20649;-58
2022/04/19 05:20:54;;;;;;;6.33;4.93;;;7.20;99.90;;;;;;4897643;29;20769;-59
2022/04/19 05:23:23;;;;;;;5.77;4.47;;;7.20;99.90;;;;;;4894336;29;20253;-58
2022/04/19 05:25:51;;;;;;;8.57;5.00;;;7.20;99.90;;;;;;4889549;29;20240;-58
2022/04/19 05:28:20;;;;;;;7.87;4.50;;;7.40;99.90;;;;;;4897087;29;20285;-58
2022/04/19 05:30:53;;;;;;;7.13;5.20;;;7.50;99.90;;;;;;4895130;29;20241;-59
2022/04/19 05:33:21;;;;;;;5.93;5.10;;;7.70;99.90;;;;;;4903598;29;20719;-58
2022/04/19 05:35:51;;;;;;;6.63;5.20;;;7.70;99.90;;;;;;4897241;29;20249;-58
2022/04/19 05:38:19;;;;;;;6.53;4.63;;;7.80;99.90;;;;;;4897549;29;20241;-59
2022/04/19 05:40:47;;;;;;;6.90;5.13;;;7.90;99.90;;;;;;4897112;29;20247;-58
2022/04/19 05:43:15;;;;;;;7.37;5.33;;;8.00;99.90;;;;;;4897404;29;20293;-58
2022/04/19 05:45:46;;;;;;;6.70;5.40;;;8.00;99.90;;;;;;4903887;29;20241;-58
2022/04/19 05:48:15;;;;;;;7.87;5.13;;;8.10;99.90;;;;;;4891811;29;20321;-59
2022/04/19 05:50:43;;;;;;;6.53;5.60;;;8.10;99.90;;;;;;4896410;29;20269;-58
2022/04/19 05:53:13;;;;;;;8.47;5.37;;;8.20;99.90;;;;;;4891582;29;20245;-59
2022/04/19 05:55:41;;;;;;;6.63;5.33;;;8.20;99.90;;;;;;4896383;29;20247;-58
2022/04/19 05:58:09;;;;;;;6.40;5.13;;;8.40;99.90;;;;;;4891394;29;20257;-58
2022/04/19 06:00:37;;;;;;;6.73;5.70;;;8.50;99.90;;;;;;4896316;29;20654;-59
2022/04/19 06:05:51;;;;;;;10.57;5.70;;;8.70;99.90;;;;;;4892448;29;20284;-59
2022/04/19 06:08:22;;;;;;;6.63;5.33;;;8.80;99.90;;;;;;4896896;29;20717;-59
2022/04/19 06:11:02;;;;;;;7.47;5.73;;;8.90;99.90;;;;;;4896575;29;20248;-58
2022/04/19 06:13:33;;;;;;;8.70;5.47;;;9.10;99.90;;;;;;4896540;29;20237;-58
2022/04/19 06:16:03;;;;;;;6.33;4.90;;;9.30;99.90;;;;;;4903511;29;20229;-59
2022/04/19 06:18:36;;;;;;;7.20;5.37;;;9.50;99.90;;;;;;4896312;29;20241;-58
2022/04/19 06:21:17;;;;;;;7.90;5.20;;;9.70;99.90;;;;;;4894179;29;20333;-59
2022/04/19 06:23:47;;;;;;;8.10;5.53;;;10.00;99.90;;;;;;4894441;29;20241;-58
2022/04/19 06:26:15;;;;;;;7.27;5.13;;;10.20;99.90;;;;;;4896441;29;20595;-58
2022/04/19 06:28:45;;;;;;;6.13;5.40;;;10.40;99.90;;;;;;4896361;29;20356;-59
2022/04/19 06:31:36;;;;;;;5.93;4.80;;;10.40;99.90;;;;;;4896138;29;20246;-59
2022/04/19 06:34:11;;;;;;;6.53;5.07;;;10.40;99.90;;;;;;4896392;29;20233;-59
2022/04/19 06:37:00;;;;;;;5.93;5.30;;;10.50;99.90;;;;;;4889652;29;20236;-58
2022/04/19 06:39:30;;;;;;;6.13;5.47;;;10.70;99.90;;;;;;4894161;29;20321;-58
2022/04/19 06:41:58;;;;;;;5.80;4.90;;;10.80;99.90;;;;;;4895968;29;20265;-59
2022/04/19 06:44:32;;;;;;;6.50;4.50;;;10.80;99.90;;;;;;4896110;29;20329;-58
2022/04/19 06:47:08;;;;;;;5.40;4.60;;;11.00;99.90;;;;;;4892499;29;20245;-58
2022/04/19 06:49:38;;;;;;;5.63;4.73;;;11.10;99.90;;;;;;4892920;29;20230;-58
2022/04/19 06:52:08;;;;;;;5.70;4.50;;;11.20;99.90;;;;;;4899638;29;20251;-58
2022/04/19 06:54:38;;;;;;;6.70;5.13;;;11.40;99.90;;;;;;4895894;29;20648;-58
2022/04/19 06:57:07;;;;;;;6.27;4.40;;;11.50;99.90;;;;;;4894662;29;20241;-58
2022/04/19 06:59:35;;;;;;;6.87;4.97;;;11.60;99.90;;;;;;4895520;29;20237;-58
2022/04/19 07:02:03;;;;;;;4.63;4.17;;;11.70;99.90;;;;;;4893950;29;20287;-58
2022/04/19 07:04:34;;;;;;;5.03;3.90;;;11.70;99.90;;;;;;4891798;29;20239;-58
2022/04/19 07:07:08;;;;;;;5.00;4.50;;;12.00;99.90;;;;;;4895129;29;20577;-58
2022/04/19 07:09:40;;;;;;;5.77;4.30;;;12.10;99.90;;;;;;4888209;29;20294;-58
2022/04/19 07:12:09;;;;;;;6.30;4.40;;;12.30;99.90;;;;;;4895421;29;20244;-58
2022/04/19 07:14:57;;;;;;;5.13;4.10;;;12.20;99.90;;;;;;4901073;29;20298;-58
2022/04/19 07:17:40;;;;;;;4.57;3.60;;;12.30;99.90;;;;;;4890164;29;20258;-59
2022/04/19 07:28:35;;;;;;;4.90;3.10;;;12.90;99.90;;;;;;4887993;29;20249;-59
2022/04/19 07:31:04;;;;;;;3.37;3.07;;;13.20;99.90;;;;;;4891488;29;20240;-58
2022/04/19 07:33:38;;;;;;;4.53;3.20;;;13.40;99.90;;;;;;4893849;29;20243;-59
2022/04/19 07:36:07;;;;;;;3.90;3.20;;;13.30;99.90;;;;;;4894861;29;20247;-58
2022/04/19 07:38:35;;;;;;;3.70;3.10;;;13.20;99.90;;;;;;4890570;29;20315;-58
2022/04/19 07:41:22;;;;;;;6.77;3.40;;;13.10;99.90;;;;;;4894332;29;20251;-59
2022/04/19 07:43:54;;;;;;;4.53;3.53;;;13.30;99.90;;;;;;4888045;29;20324;-58
2022/04/19 07:46:22;;;;;;;4.70;3.70;;;13.30;99.90;;;;;;4901065;29;20244;-58
2022/04/19 07:48:52;;;;;;;5.73;4.07;;;13.30;99.90;;;;;;4896508;29;20695;-58
2022/04/19 07:51:20;;;;;;;5.43;3.60;;;13.40;99.90;;;;;;4897508;29;20246;-58
2022/04/19 07:53:49;;;;;;;5.90;3.27;;;13.40;99.90;;;;;;4894570;29;20252;-59
2022/04/19 07:56:20;;;;;;;5.00;3.33;;;13.40;99.90;;;;;;4885629;29;20394;-59
2022/04/19 07:58:49;;;;;;;3.93;3.00;;;13.30;99.90;;;;;;4894903;29;20308;-58
2022/04/19 08:01:19;;;;;;;4.50;3.20;;;13.10;99.90;;;;;;4894787;29;20233;-59
2022/04/19 08:03:48;;;;;;;4.30;3.43;;;13.30;99.90;;;;;;4894638;29;21809;-58
2022/04/19 08:06:16;;;;;;;3.70;3.30;;;13.50;99.90;;;;;;4894377;29;20232;-59
2022/04/19 08:08:44;;;;;;;5.20;4.03;;;13.80;99.90;;;;;;4894564;29;20712;-59
2022/04/19 08:11:13;;;;;;;4.73;3.93;;;13.80;99.90;;;;;;4897649;29;20319;-59
2022/04/19 08:13:43;;;;;;;4.57;3.80;;;14.00;99.90;;;;;;4894556;29;20272;-58
2022/04/19 08:16:11;;;;;;;5.30;4.03;;;14.00;99.90;;;;;;4896048;29;20248;-59
2022/04/19 08:18:40;;;;;;;5.50;4.13;;;13.80;99.90;;;;;;4888595;29;20240;-58
2022/04/19 08:21:08;;;;;;;5.43;4.00;;;13.90;99.90;;;;;;4890691;29;20244;-58
2022/04/19 08:23:37;;;;;;;5.10;4.13;;;14.30;99.90;;;;;;4890972;29;20233;-58
2022/04/19 08:26:10;;;;;;;4.87;3.70;;;14.50;99.90;;;;;;4894452;29;20244;-59
2022/04/19 08:28:38;;;;;;;5.20;3.70;;;14.40;99.90;;;;;;4886752;29;20244;-59
2022/04/19 08:31:08;;;;;;;4.97;3.90;;;14.30;99.90;;;;;;4896981;29;20248;-58
2022/04/19 08:33:38;;;;;;;5.13;4.23;;;14.70;99.90;;;;;;4890439;29;20331;-59
2022/04/19 08:36:07;;;;;;;4.73;4.10;;;15.10;99.90;;;;;;4894167;29;20233;-58
2022/04/19 08:38:36;;;;;;;4.87;4.07;;;15.30;99.90;;;;;;4893444;29;20300;-59
2022/04/19 08:41:06;;;;;;;5.80;3.40;;;15.20;99.90;;;;;;4893855;29;20241;-59
2022/04/19 08:43:38;;;;;;;4.80;3.80;;;15.10;99.90;;;;;;4894152;29;20276;-59
2022/04/19 08:46:08;;;;;;;5.20;3.50;;;15.20;99.90;;;;;;4902386;29;20233;-58
2022/04/19 08:48:38;;;;;;;5.67;3.80;;;15.30;99.90;;;;;;4895346;29;20269;-58
2022/04/19 08:51:10;;;;;;;4.00;3.57;;;15.30;99.90;;;;;;4894453;29;20245;-59
2022/04/19 08:59:15;;;;;;;5.60;3.17;;;15.50;99.90;;;;;;4890437;29;20233;-58
2022/04/19 09:01:44;;;;;;;4.57;3.13;;;15.70;99.90;;;;;;4894137;29;20243;-59
2022/04/19 09:04:13;;;;;;;3.83;3.20;;;15.70;99.90;;;;;;4892714;29;20304;-59
2022/04/19 09:06:51;;;;;;;3.83;3.03;;;15.50;99.90;;;;;;4892331;29;20226;-58
2022/04/19 09:09:23;;;;;;;5.67;2.70;;;15.60;99.90;;;;;;4893573;29;20251;-59
2022/04/19 09:11:53;;;;;;;3.60;2.90;;;15.70;99.90;;;;;;4891837;29;20240;-58
2022/04/19 09:14:23;;;;;;;3.77;2.73;;;15.80;99.90;;;;;;4892489;29;20236;-58
2022/04/19 09:17:03;;;;;;;4.20;2.80;;;16.10;99.90;;;;;;4894616;29;20290;-59
2022/04/19 09:19:32;;;;;;;4.33;2.87;;;16.20;99.90;;;;;;4893047;29;20244;-58
2022/04/19 09:22:01;;;;;;;4.57;2.83;;;16.50;99.90;;;;;;4895403;29;20248;-59
2022/04/19 09:24:34;;;;;;;4.27;3.10;;;16.30;99.90;;;;;;4892822;29;20244;-58
2022/04/19 09:27:02;;;;;;;4.60;3.10;;;16.20;99.90;;;;;;4892464;29;20242;-59
2022/04/19 09:29:30;;;;;;;6.50;3.27;;;16.20;99.90;;;;;;4902671;29;20243;-59
2022/04/19 09:32:01;;;;;;;4.43;2.80;;;16.40;99.90;;;;;;4905621;29;20259;-59
2022/04/19 09:34:33;;;;;;;4.97;3.47;;;16.60;99.90;;;;;;4893921;29;20240;-63
2022/04/19 09:37:10;;;;;;;4.70;3.40;;;16.40;99.90;;;;;;4905646;29;20245;-59
2022/04/19 09:39:39;;;;;;;4.73;3.40;;;16.30;99.90;;;;;;4899860;29;20235;-58
2022/04/19 09:42:09;;;;;;;5.27;3.40;;;16.60;99.90;;;;;;4901528;29;20717;-59
2022/04/19 09:44:38;;;;;;;3.77;3.17;;;16.90;99.90;;;;;;4905455;29;20237;-59
2022/04/19 09:47:09;;;;;;;4.50;3.17;;;17.00;99.90;;;;;;4905012;29;20243;-59
2022/04/19 09:49:45;;;;;;;6.70;3.70;;;16.80;99.90;;;;;;4902712;29;20320;-59
2022/04/19 09:52:15;;;;;;;4.63;3.33;;;16.60;99.90;;;;;;4902565;29;20249;-59
2022/04/19 09:54:44;;;;;;;5.53;3.80;;;16.70;99.90;;;;;;4896185;29;20234;-59
2022/04/19 09:57:12;;;;;;;4.00;3.17;;;16.70;99.90;;;;;;4899170;29;20600;-59
2022/04/19 09:59:45;;;;;;;4.90;3.60;;;16.90;99.90;;;;;;4894926;29;20293;-58
2022/04/19 10:10:37;;;;;;;5.47;4.30;;;18.10;99.90;;;;;;4900607;29;20241;-59
2022/04/19 10:13:06;;;;;;;5.53;4.57;;;18.00;99.20;;;;;;4897148;29;20744;-58
2022/04/19 10:15:35;;;;;;;5.70;4.50;;;17.90;99.50;;;;;;4904430;29;20233;-58
2022/04/19 10:18:06;;;;;;;5.07;4.00;;;17.80;99.90;;;;;;4912589;29;20251;-58
2022/04/19 10:20:37;;;;;;;6.60;4.20;;;18.10;99.90;;;;;;4908416;29;20229;-59
2022/04/19 10:23:09;;;;;;;6.87;4.53;;;18.30;98.80;;;;;;4912414;29;20320;-59
2022/04/19 10:25:43;;;;;;;6.60;4.60;;;18.40;99.00;;;;;;4908932;29;20238;-59
2022/04/19 10:28:13;;;;;;;5.50;4.13;;;18.40;98.90;;;;;;4903304;29;20291;-57
2022/04/19 10:30:51;;;;;;;5.97;4.60;;;18.20;98.60;;;;;;4908719;29;20583;-58
2022/04/19 10:33:45;;;;;;;5.80;4.47;;;18.20;99.40;;;;;;4899015;29;20304;-59
2022/04/19 10:36:14;;;;;;;7.40;5.10;;;18.10;98.90;;;;;;4907945;29;20241;-58
2022/04/19 10:38:44;;;;;;;7.60;5.03;;;17.60;98.90;;;;;;4892798;29;20238;-59
2022/04/19 10:41:33;;;;;;;9.00;5.67;;;18.00;99.10;;;;;;4898281;29;20722;-58
2022/04/19 10:44:26;;;;;;;11.53;4.70;;;18.40;98.40;;;;;;4903563;29;20257;-58
2022/04/19 10:47:11;;;;;;;7.93;4.77;;;18.40;98.40;;;;;;4895843;29;20242;-59
2022/04/19 10:50:08;;;;;;;7.50;5.43;;;18.20;97.50;;;;;;4897466;29;20664;-59
2022/04/19 10:52:52;;;;;;;8.20;5.50;;;18.20;97.80;;;;;;4857588;29;20314;-58
2022/04/19 10:55:26;;;;;;;6.30;4.87;;;18.20;98.00;;;;;;4893772;29;20241;-59
2022/04/19 10:58:16;;;;;;;8.70;5.60;;;18.00;98.30;;;;;;4896949;29;20242;-58
2022/04/19 11:00:47;;;;;;;7.57;5.43;;;17.90;98.20;;;;;;4894474;29;20237;-59
2022/04/19 11:03:47;;;;;;;6.67;5.03;;;18.20;98.60;;;;;;4892125;29;20248;-58
2022/04/19 11:06:37;;;;;;;7.33;4.80;;;18.70;98.80;;;;;;4894584;29;20257;-58
2022/04/19 11:09:14;;;;;;;7.20;5.00;;;18.70;97.70;;;;;;4894759;29;20376;-58
2022/04/19 11:11:50;;;;;;;6.60;4.60;;;18.60;98.10;;;;;;4898002;29;20238;-59
2022/04/19 11:14:47;;;;;;;5.33;4.50;;;18.70;97.90;;;;;;4896394;29;20243;-59
2022/04/19 11:17:24;;;;;;;7.50;5.07;;;19.00;96.60;;;;;;4911180;29;20246;-59
2022/04/19 11:20:08;;;;;;;7.60;4.70;;;18.60;96.70;;;;;;4905033;29;20335;-58
2022/04/19 11:22:52;;;;;;;6.90;5.20;;;18.50;96.90;;;;;;4910607;29;20247;-58
2022/04/19 11:25:38;;;;;;;8.37;4.93;;;18.80;96.90;;;;;;4902392;29;20291;-59
2022/04/19 11:28:27;;;;;;;7.90;5.27;;;18.60;96.50;;;;;;4896949;29;20721;-59
2022/04/19 11:31:12;;;;;;;6.13;4.43;;;18.30;96.50;;;;;;4898982;29;20258;-59
2022/04/19 11:33:40;;;;;;;7.27;5.10;;;18.50;96.50;;;;;;4895173;29;20242;-58
2022/04/19 11:36:11;;;;;;;6.70;4.83;;;18.30;95.50;;;;;;4898527;29;20303;-58
2022/04/19 11:38:45;;;;;;;6.37;3.80;;;18.60;95.80;;;;;;4896036;29;20628;-59
2022/04/19 11:46:46;;;;;;;8.70;3.73;;;17.90;96.30;;;;;;4902042;29;20325;-59
2022/04/19 11:49:35;;;;;;;4.53;3.30;;;18.00;94.80;;;;;;4895945;29;20603;-59
2022/04/19 11:52:10;;;;;;;7.63;4.03;;;18.10;95.60;;;;;;4896555;29;20342;-59
2022/04/19 11:54:40;;;;;;;6.30;3.70;;;18.10;95.10;;;;;;4880055;29;20325;-58
2022/04/19 11:57:10;;;;;;;5.10;3.50;;;17.80;95.60;;;;;;4891561;29;20239;-59
2022/04/19 11:59:40;;;;;;;7.60;4.10;;;17.80;94.90;;;;;;4886161;29;20254;-58
2022/04/19 12:02:14;;;;;;;5.80;3.53;;;17.60;95.00;;;;;;4896809;29;20251;-58
2022/04/19 12:04:51;;;;;;;5.07;3.77;;;17.60;95.50;;;;;;4902168;29;20296;-58
2022/04/19 12:07:20;;;;;;;5.40;3.70;;;17.60;94.80;;;;;;4895830;29;20294;-58
2022/04/19 12:09:51;;;;;;;6.43;4.10;;;17.80;95.30;;;;;;4896057;29;20238;-58
2022/04/19 12:12:20;;;;;;;5.47;3.70;;;17.80;95.50;;;;;;4895446;29;20690;-59
2022/04/19 12:14:52;;;;;;;7.90;4.40;;;17.80;95.90;;;;;;4895777;29;20265;-58
2022/04/19 12:17:25;;;;;;;6.63;3.80;;;17.60;95.40;;;;;;4896017;29;20665;-58
2022/04/19 12:20:04;;;;;;;9.73;3.57;;;17.60;95.60;;;;;;4899895;29;20243;-58
2022/04/19 12:22:35;;;;;;;5.30;3.23;;;17.50;95.70;;;;;;4895383;29;20238;-59
2022/04/19 12:25:06;;;;;;;5.93;3.30;;;17.60;95.20;;;;;;4893534;29;20510;-60
2022/04/19 12:27:37;;;;;;;4.57;2.70;;;17.60;95.40;;;;;;4895297;29;20708;-59
2022/04/19 12:30:08;;;;;;;4.33;2.90;;;17.30;95.00;;;;;;4893493;29;20639;-60
2022/04/19 12:32:51;;;;;;;5.17;2.27;;;17.40;96.20;;;;;;4891535;29;20250;-60
2022/04/19 12:35:24;;;;;;;4.37;2.30;;;17.60;95.60;;;;;;4891616;29;21085;-60
2022/04/19 12:38:07;;;;;;;3.03;2.20;;;17.60;95.80;;;;;;4895786;29;20238;-60
2022/04/19 12:40:37;;;;;;;4.23;2.20;;;17.50;95.70;;;;;;4895204;29;20245;-60
2022/04/19 12:43:05;;;;;;;4.60;2.53;;;17.50;96.10;;;;;;4889821;29;20249;-60
2022/04/19 12:45:35;;;;;;;3.57;2.40;;;17.40;96.70;;;;;;4894998;29;20600;-59
2022/04/19 12:48:04;;;;;;;3.43;2.20;;;17.40;97.10;;;;;;4895512;29;20271;-60
2022/04/19 12:50:33;;;;;;;3.00;2.10;;;17.20;97.20;;;;;;4895004;29;20795;-60
2022/04/19 12:53:02;;;;;;;2.50;1.87;;;17.40;98.10;;;;;;4895692;29;20753;-59
2022/04/19 12:55:30;;;;;;;3.53;2.63;;;17.50;97.80;;;;;;4895483;29;20294;-59
2022/04/19 12:58:09;;;;;;;5.17;2.63;;;17.40;97.00;;;;;;4895089;29;20326;-60
2022/04/19 13:00:38;;;;;;;3.50;1.60;;;17.40;98.00;;;;;;4894296;29;20249;-60
2022/04/19 13:03:06;;;;;;;2.85;2.10;;;17.40;97.90;;;;;;4895550;29;20452;-60
2022/04/19 13:13:53;;;;;;;6.10;2.03;;;16.70;98.80;;;;;;4900953;29;20254;-59
2022/04/19 13:16:21;;;;;;;3.03;1.67;;;16.60;98.80;;;;;;4891617;29;20234;-58
2022/04/19 13:18:50;;;;;;;2.63;1.70;;;16.60;98.40;;;;;;4895314;29;20711;-59
2022/04/19 13:21:18;;;;;;;3.30;2.10;;;16.50;98.70;;;;;;4898118;29;20242;-59
2022/04/19 13:23:46;;;;;;;3.43;2.00;;;16.60;99.80;;;;;;4894827;29;20237;-59
2022/04/19 13:26:18;;;;;;;2.70;1.83;;;16.60;99.10;;;;;;4888021;29;20237;-58
2022/04/19 13:28:46;;;;;;;2.00;1.80;;;16.70;99.80;;;;;;4894211;29;20617;-59
2022/04/19 13:31:16;;;;;;;3.40;1.77;;;16.40;97.90;;;;;;4894628;29;20647;-67
2022/04/19 13:33:44;;;;;;;3.77;1.53;;;16.20;99.30;;;;;;4891207;29;20328;-62
2022/04/19 13:36:13;;;;;;;2.13;1.30;;;16.30;99.60;;;;;;4891780;29;20232;-62
2022/04/19 13:38:41;;;;;;;1.33;1.10;;;16.10;99.90;;;;;;4896702;29;20238;-62
2022/04/19 13:41:10;;;;;;;2.07;1.33;;;16.30;99.60;;;;;;4898274;29;20237;-60
2022/04/19 13:43:38;;;;;;;1.87;1.20;;;16.30;98.60;;;;;;4898755;29;20257;-61
2022/04/19 13:46:06;;;;;;;1.00;0.90;;;16.30;97.90;;;;;;4898741;29;20492;-60
2022/04/19 13:48:36;;;;;;;1.27;0.97;;;16.20;97.60;;;;;;4898668;29;20321;-60
2022/04/19 13:51:04;;;;;;;1.83;0.80;;;16.30;96.70;;;;;;4899261;29;20245;-61
2022/04/19 13:53:33;;;;;;;2.17;0.80;;;16.30;96.80;;;;;;4898691;29;20759;-60
2022/04/19 13:56:01;;;;;;;0.83;0.70;;;16.20;97.10;;;;;;4898923;29;20725;-60
2022/04/19 13:58:29;;;;;;;1.05;0.70;;;16.20;96.50;;;;;;4890456;29;20953;-59
2022/04/19 14:00:57;;;;;;;0.60;0.60;;;16.10;96.20;;;;;;4899143;29;20593;-59